createdAt,value
2022-08-28T18:14:08.108Z,229.643
2022-08-28T18:15:08.173Z,214.429
2022-08-28T18:16:08.223Z,221.643
2022-08-28T18:17:09.172Z,297.214
2022-08-28T18:18:08.295Z,331.714
2022-08-28T18:19:08.318Z,304.429
2022-08-28T18:20:08.387Z,261
2022-08-28T18:21:08.421Z,238.5
2022-08-28T18:22:08.443Z,231
2022-08-28T18:23:08.483Z,404.143
2022-08-28T18:24:08.529Z,508
2022-08-28T18:25:08.569Z,628.714
2022-08-28T18:26:08.608Z,519.214
2022-08-28T18:27:08.646Z,573.214
2022-08-28T18:28:08.687Z,474.5
2022-08-28T18:29:08.729Z,472.5
2022-08-28T18:30:08.768Z,427
2022-08-28T18:31:08.846Z,377.357
2022-08-28T18:32:08.885Z,321.857
2022-08-28T18:33:08.901Z,297
2022-08-28T18:34:08.949Z,277.429
2022-08-28T18:35:08.985Z,259.214
2022-08-28T18:36:09.030Z,228.929
2022-08-28T18:37:09.094Z,202.857
2022-08-28T18:38:09.132Z,184.929
2022-08-28T18:39:09.157Z,159.357
2022-08-28T18:40:09.286Z,145
2022-08-28T18:41:09.234Z,127.357
2022-08-28T18:42:09.295Z,120.643
2022-08-28T18:43:09.318Z,102
2022-08-28T18:44:09.359Z,88.9286
2022-08-28T18:45:09.398Z,85.1429
2022-08-28T18:46:09.567Z,75.5
2022-08-28T18:47:09.486Z,62.6429
2022-08-28T18:48:09.546Z,61.2143
2022-08-28T18:49:09.595Z,58.8571
2022-08-28T18:50:09.615Z,52.8571
2022-08-28T18:51:09.655Z,45.9286
2022-08-28T18:52:09.700Z,44.9286
2022-08-28T18:53:09.760Z,40.5
2022-08-28T18:54:09.824Z,36.1429
2022-08-28T18:55:09.820Z,33.6429
2022-08-28T18:56:11.008Z,30.7143
2022-08-28T18:57:09.909Z,27.8571
2022-08-28T18:58:10.006Z,26.4286
2022-08-28T18:59:09.995Z,26.3571
2022-08-28T19:00:10.036Z,25
2022-08-28T19:01:10.077Z,23.1429
2022-08-28T19:02:10.274Z,22.9286
2022-08-28T19:03:10.227Z,21.6429
2022-08-28T19:04:10.220Z,21
2022-08-28T19:05:10.235Z,19.2143
2022-08-28T19:06:10.275Z,20.4286
2022-08-28T19:07:10.330Z,17.8571
2022-08-28T19:08:10.478Z,19.4286
2022-08-28T19:09:11.675Z,17
2022-08-28T19:10:28.103Z,16.5
2022-08-28T19:11:10.480Z,17.1429
2022-08-28T19:12:10.515Z,15.6429
2022-08-28T19:13:10.577Z,15.9286
2022-08-28T19:14:10.600Z,14.9286
2022-08-28T19:15:10.644Z,15.4286
2022-08-28T19:16:10.780Z,14.2143
2022-08-28T19:17:10.724Z,13.9286
2022-08-28T19:18:10.866Z,12.8571
2022-08-28T19:19:10.845Z,14
2022-08-28T19:20:10.856Z,13.7143
2022-08-28T19:21:10.894Z,12.4286
2022-08-28T19:22:10.936Z,12.3571
2022-08-28T19:23:14.268Z,10.9286
2022-08-28T19:24:11.036Z,10.9286
2022-08-28T19:25:22.331Z,10.8571
2022-08-28T19:26:11.097Z,10.6429
2022-08-28T19:27:11.135Z,10.5
2022-08-28T19:28:11.224Z,10.4286
2022-08-28T19:29:11.237Z,10
2022-08-28T19:30:11.255Z,9
2022-08-28T19:31:11.352Z,8.85714
2022-08-28T19:32:11.337Z,10.9286
2022-08-28T19:33:11.412Z,8.85714
2022-08-28T19:34:11.421Z,10
2022-08-28T19:35:11.462Z,8.64286
2022-08-28T19:36:11.512Z,8.14286
2022-08-28T19:37:11.563Z,124.214
2022-08-28T19:38:11.606Z,202.929
2022-08-28T19:39:11.628Z,187.5
2022-08-28T19:40:11.740Z,230.214
2022-08-28T19:41:11.717Z,240.929
2022-08-28T19:42:11.747Z,224.143
2022-08-28T19:43:16.562Z,235.643
2022-08-28T19:44:11.833Z,254.357
2022-08-28T19:45:11.908Z,249.5
2022-08-28T19:46:19.871Z,245.357
2022-08-28T19:47:11.953Z,204.214
2022-08-28T19:48:12.179Z,191.357
2022-08-28T19:49:12.031Z,173.929
2022-08-28T19:50:12.099Z,191.643
2022-08-28T19:51:17.624Z,242.714
2022-08-28T19:52:12.158Z,251.214
2022-08-28T19:53:12.201Z,235.214
2022-08-28T19:54:12.268Z,233
2022-08-28T19:55:12.285Z,247.143
2022-08-28T19:56:12.326Z,259.143
2022-08-28T19:57:12.371Z,280.714
2022-08-28T19:58:12.558Z,265.857
2022-08-28T19:59:12.445Z,237.643
2022-08-28T20:00:12.489Z,210.5
2022-08-28T20:01:12.636Z,170.429
2022-08-28T20:02:12.614Z,163.643
2022-08-28T20:03:12.611Z,144.643
2022-08-28T20:04:12.656Z,131.929
2022-08-28T20:05:12.687Z,114.714
2022-08-28T20:06:12.757Z,108.714
2022-08-28T20:07:12.777Z,93
2022-08-28T20:08:12.961Z,81.9286
2022-08-28T20:09:13.263Z,69.5
2022-08-28T20:10:12.910Z,62.8571
2022-08-28T20:11:12.979Z,57.4286
2022-08-28T20:12:13.003Z,52.4286
2022-08-28T20:13:13.074Z,48.6429
2022-08-28T20:14:13.088Z,43.7143
2022-08-28T20:15:14.282Z,38.6429
2022-08-28T20:16:13.291Z,148.357
2022-08-28T20:17:13.216Z,165.429
2022-08-28T20:18:13.375Z,151.714
2022-08-28T20:19:13.295Z,155.643
2022-08-28T20:20:13.339Z,142.5
2022-08-28T20:21:13.381Z,125.214
2022-08-28T20:22:13.425Z,115.143
2022-08-28T20:23:13.485Z,101.429
2022-08-28T20:24:13.515Z,88.6429
2022-08-28T20:25:13.548Z,77.5
2022-08-28T20:26:13.595Z,67
2022-08-28T20:27:13.633Z,62.5
2022-08-28T20:28:13.977Z,58.3571
2022-08-28T20:29:13.723Z,52.6429
2022-08-28T20:30:13.762Z,47.3571
2022-08-28T20:31:13.843Z,42.6429
2022-08-28T20:32:13.840Z,39.8571
2022-08-28T20:33:13.905Z,38.7143
2022-08-28T20:34:13.954Z,37
2022-08-28T20:35:13.970Z,38.3571
2022-08-28T20:36:18.966Z,37.2143
2022-08-28T20:37:14.072Z,34.3571
2022-08-28T20:38:14.220Z,34.9286
2022-08-28T20:39:14.138Z,32.3571
2022-08-28T20:40:14.302Z,31
2022-08-28T20:41:14.239Z,29.6429
2022-08-28T20:42:14.269Z,28.8571
2022-08-28T20:43:14.309Z,31.5
2022-08-28T20:44:14.350Z,30.1429
2022-08-28T20:45:14.390Z,33.8571
2022-08-28T20:46:14.540Z,73.8571
2022-08-28T20:47:14.469Z,74.3571
2022-08-28T20:48:14.751Z,78.9286
2022-08-28T20:49:14.562Z,80
2022-08-28T20:50:14.601Z,69.4286
2022-08-28T20:51:14.664Z,62.9286
2022-08-28T20:52:14.679Z,60.7143
2022-08-28T20:53:14.724Z,52.6429
2022-08-28T20:54:14.762Z,52.3571
2022-08-28T20:55:14.847Z,52
2022-08-28T20:56:14.847Z,103.214
2022-08-28T20:57:14.881Z,110.714
2022-08-28T20:58:15.257Z,151.357
2022-08-28T20:59:14.973Z,161.143
2022-08-28T21:00:15.053Z,185.429
2022-08-28T21:01:15.138Z,211.643
2022-08-28T21:02:15.101Z,249.143
2022-08-28T21:03:15.138Z,211.357
2022-08-28T21:04:15.182Z,179.857
2022-08-28T21:05:15.345Z,156.857
2022-08-28T21:06:15.270Z,142.5
2022-08-28T21:07:15.303Z,130.214
2022-08-28T21:08:15.575Z,114.5
2022-08-28T21:09:15.381Z,97.3571
2022-08-28T21:10:15.421Z,92.2143
2022-08-28T21:11:15.468Z,82.8571
2022-08-28T21:12:15.538Z,68.4286
2022-08-28T21:13:15.562Z,61.4286
2022-08-28T21:14:15.596Z,54.8571
2022-08-28T21:15:15.632Z,47.1429
2022-08-28T21:16:15.697Z,47.8571
2022-08-28T21:17:15.744Z,48
2022-08-28T21:18:16.035Z,44.6429
2022-08-28T21:19:16.635Z,42.8571
2022-08-28T21:20:15.848Z,43.3571
2022-08-28T21:21:15.886Z,39.7143
2022-08-28T21:22:15.949Z,36.4286
2022-08-28T21:23:15.969Z,37.3571
2022-08-28T21:24:16.043Z,34.7143
2022-08-28T21:25:16.059Z,35.1429
2022-08-28T21:26:16.102Z,36.5
2022-08-28T21:27:16.151Z,32
2022-08-28T21:28:16.430Z,29.6429
2022-08-28T21:29:16.250Z,30.8571
2022-08-28T21:30:16.289Z,28.8571
2022-08-28T21:31:16.368Z,28.2143
2022-08-28T21:32:16.349Z,28.8571
2022-08-28T21:33:16.407Z,28.4286
2022-08-28T21:34:16.436Z,25.3571
2022-08-28T21:35:16.500Z,25.3571
2022-08-28T21:36:16.533Z,26
2022-08-28T21:37:16.577Z,24.2143
2022-08-28T21:38:16.621Z,23.3571
2022-08-28T21:39:16.680Z,22.1429
2022-08-28T21:40:16.784Z,22.1429
2022-08-28T21:41:16.767Z,21.9286
2022-08-28T21:42:16.800Z,21.4286
2022-08-28T21:43:16.868Z,20.6429
2022-08-28T21:44:16.896Z,19
2022-08-28T21:45:16.936Z,18.3571
2022-08-28T21:46:17.077Z,19.6429
2022-08-28T21:47:17.021Z,18
2022-08-28T21:48:17.081Z,17.9286
2022-08-28T21:49:17.099Z,18.5
2022-08-28T21:50:17.135Z,72.5
2022-08-28T21:51:17.174Z,108.929
2022-08-28T21:52:17.212Z,119.357
2022-08-28T21:53:17.258Z,126.857
2022-08-28T21:54:17.298Z,128
2022-08-28T21:55:17.347Z,106.857
2022-08-28T21:56:17.389Z,97.9286
2022-08-28T21:57:17.446Z,82.7143
2022-08-28T21:58:17.468Z,75.3571
2022-08-28T21:59:17.509Z,65.7143
2022-08-28T22:00:17.571Z,63.2143
2022-08-28T22:01:17.756Z,56.6429
2022-08-28T22:02:17.757Z,51.1429
2022-08-28T22:03:17.672Z,45.3571
2022-08-28T22:04:17.714Z,42.8571
2022-08-28T22:05:17.763Z,41.2143
2022-08-28T22:06:17.823Z,42.1429
2022-08-28T22:07:17.849Z,39.7143
2022-08-28T22:08:17.894Z,39.9286
2022-08-28T22:09:17.935Z,36.3571
2022-08-28T22:10:18.016Z,34.2143
2022-08-28T22:11:21.030Z,33.9286
2022-08-28T22:12:18.065Z,32.2143
2022-08-28T22:13:18.099Z,34.1429
2022-08-28T22:14:18.142Z,29.3571
2022-08-28T22:15:18.227Z,26.1429
2022-08-28T22:16:18.281Z,20.2143
2022-08-28T22:17:18.269Z,19.8571
2022-08-28T22:18:18.313Z,19.5
2022-08-28T22:19:18.355Z,16.2143
2022-08-28T22:20:18.429Z,19.5
2022-08-28T22:21:18.435Z,71.6429
2022-08-28T22:22:18.472Z,74.9286
2022-08-28T22:23:18.547Z,59.3571
2022-08-28T22:24:18.559Z,168.429
2022-08-28T22:25:18.592Z,106
2022-08-28T22:26:18.637Z,248.714
2022-08-28T22:27:18.674Z,244
2022-08-28T22:28:18.730Z,271.714
2022-08-28T22:29:18.756Z,243.643
2022-08-28T22:30:18.796Z,439.429
2022-08-28T22:31:18.833Z,210.143
2022-08-28T22:32:18.970Z,402.429
2022-08-28T22:33:18.939Z,241.357
2022-08-28T22:34:18.954Z,691.357
2022-08-28T22:35:19.002Z,290.5
2022-08-28T22:36:19.044Z,197.214
2022-08-28T22:37:19.086Z,176.929
2022-08-28T22:38:19.127Z,157.357
2022-08-28T22:39:19.167Z,121.929
2022-08-28T22:40:19.266Z,176
2022-08-28T22:41:19.247Z,242.357
2022-08-28T22:42:19.575Z,228
2022-08-28T22:43:19.322Z,173.429
2022-08-28T22:44:19.362Z,143.714
2022-08-28T22:45:19.404Z,128
2022-08-28T22:46:19.505Z,118.357
2022-08-28T22:47:19.482Z,101
2022-08-28T22:48:19.525Z,99.7143
2022-08-28T22:49:19.568Z,211.714
2022-08-28T22:50:19.602Z,223.714
2022-08-28T22:51:19.648Z,177.357
2022-08-28T22:52:19.688Z,147
2022-08-28T22:53:19.730Z,130.857
2022-08-28T22:54:19.766Z,118.643
2022-08-28T22:55:19.812Z,113.429
2022-08-28T22:56:19.850Z,100.643
2022-08-28T22:57:19.891Z,88.4286
2022-08-28T22:58:19.932Z,83.9286
2022-08-28T22:59:19.981Z,83.3571
2022-08-28T23:00:20.039Z,83.3571
2022-08-28T23:01:20.100Z,83.3571
2022-08-28T23:02:20.161Z,83.3571
2022-08-28T23:03:20.447Z,83.3571
2022-08-28T23:04:20.317Z,83.3571
2022-08-28T23:05:20.331Z,83.3571
2022-08-28T23:06:20.390Z,83.3571
2022-08-28T23:07:20.469Z,83.3571
2022-08-28T23:08:20.492Z,83.3571
2022-08-28T23:09:20.554Z,30.1429
2022-08-28T23:10:32.107Z,18.3571
2022-08-28T23:11:20.624Z,19.1429
2022-08-28T23:12:20.671Z,16.3571
2022-08-28T23:13:20.708Z,17
2022-08-28T23:14:20.747Z,14.9286
2022-08-28T23:15:20.784Z,218.714
2022-08-28T23:16:20.894Z,41.1429
2022-08-28T23:17:20.859Z,198.857
2022-08-28T23:18:20.899Z,230.214
2022-08-28T23:19:20.940Z,232.143
2022-08-28T23:20:20.986Z,257.714
2022-08-28T23:21:21.045Z,277.857
2022-08-28T23:22:21.064Z,277
2022-08-28T23:23:21.100Z,284.643
2022-08-28T23:24:21.173Z,324.714
2022-08-28T23:25:21.213Z,423.357
2022-08-28T23:26:21.233Z,378.857
2022-08-28T23:27:35.354Z,401.5
2022-08-28T23:28:21.313Z,359.357
2022-08-28T23:29:21.353Z,343.357
2022-08-28T23:30:21.402Z,483.5
2022-08-28T23:31:21.744Z,487
2022-08-28T23:32:21.506Z,487
2022-08-28T23:33:23.070Z,487
2022-08-28T23:34:21.619Z,487
2022-08-28T23:35:21.680Z,487
2022-08-28T23:36:21.765Z,487
2022-08-28T23:37:21.797Z,487
2022-08-28T23:38:21.857Z,487
2022-08-28T23:39:21.917Z,487
2022-08-28T23:40:22.033Z,487
2022-08-28T23:41:22.110Z,487
2022-08-28T23:42:22.095Z,487
2022-08-28T23:43:22.182Z,487
2022-08-28T23:44:22.210Z,487
2022-08-28T23:45:22.274Z,487
2022-08-28T23:46:22.373Z,487
2022-08-28T23:47:22.391Z,487
2022-08-28T23:48:22.485Z,487
2022-08-28T23:49:26.723Z,487
2022-08-28T23:50:22.568Z,487
2022-08-28T23:51:22.629Z,487
2022-08-28T23:52:22.687Z,487
2022-08-28T23:53:22.770Z,487
2022-08-28T23:54:22.807Z,487
2022-08-28T23:55:22.865Z,487
2022-08-28T23:56:22.927Z,487
2022-08-28T23:57:22.982Z,487
2022-08-28T23:58:23.064Z,487
2022-08-28T23:59:23.112Z,487
